Time;durP1;ratioP1;P1;durP2;ratioP2;P2;SDS_P1;SDS_P2;PMS_P1;PMS_P2;Temp;Humidity;BMP_temperature;BMP_pressure;BME280_temperature;BME280_humidity;BME280_pressure;Samples;Min_cycle;Max_cycle;Signal;HPM_P1;HPM_P2
2021/07/10 00:01:51;;;;;;;6.72;4.25;;;;;;;;;;5072483;28;20452;-50
2021/07/10 00:04:17;;;;;;;7.32;4.15;;;;;;;;;;5073704;28;20027;-50
2021/07/10 00:06:43;;;;;;;6.85;3.78;;;;;;;;;;5073307;28;20451;-50
2021/07/10 00:09:09;;;;;;;6.10;3.60;;;;;;;;;;5073481;28;20436;-50
2021/07/10 00:11:35;;;;;;;4.13;3.50;;;;;;;;;;5072913;28;20028;-50
2021/07/10 00:14:01;;;;;;;8.65;3.78;;;;;;;;;;5073416;28;20032;-50
2021/07/10 00:16:27;;;;;;;4.97;3.75;;;;;;;;;;5073703;28;20024;-50
2021/07/10 00:18:53;;;;;;;3.97;3.35;;;;;;;;;;5073137;28;20051;-51
2021/07/10 00:21:19;;;;;;;9.15;4.43;;;;;;;;;;5072338;28;20077;-50
2021/07/10 00:23:45;;;;;;;5.93;3.85;;;;;;;;;;5073339;28;20116;-50
2021/07/10 00:26:11;;;;;;;6.88;3.97;;;;;;;;;;5073617;28;20036;-50
2021/07/10 00:28:37;;;;;;;6.57;3.55;;;;;;;;;;5073138;28;20367;-50
2021/07/10 00:31:02;;;;;;;7.07;3.70;;;;;;;;;;5072247;28;20028;-50
2021/07/10 00:33:28;;;;;;;6.03;3.78;;;;;;;;;;5073024;28;20343;-50
2021/07/10 00:35:54;;;;;;;7.15;4.15;;;;;;;;;;5072891;28;20040;-50
2021/07/10 00:38:20;;;;;;;7.63;4.45;;;;;;;;;;5072856;28;20382;-50
2021/07/10 00:40:47;;;;;;;8.90;3.92;;;;;;;;;;5072217;28;20051;-50
2021/07/10 00:43:13;;;;;;;9.27;4.38;;;;;;;;;;5073067;28;20028;-51
2021/07/10 00:45:39;;;;;;;6.53;4.35;;;;;;;;;;5072641;28;20032;-50
2021/07/10 00:48:05;;;;;;;7.40;3.72;;;;;;;;;;5072481;28;20450;-50
2021/07/10 00:50:31;;;;;;;6.88;4.07;;;;;;;;;;5072210;28;20031;-50
2021/07/10 00:52:57;;;;;;;6.55;4.00;;;;;;;;;;5072817;28;20074;-51
2021/07/10 00:55:24;;;;;;;7.68;4.25;;;;;;;;;;5072955;28;20017;-50
2021/07/10 00:57:51;;;;;;;8.73;4.35;;;;;;;;;;5072761;28;20506;-51
2021/07/10 01:00:19;;;;;;;7.43;3.53;;;;;;;;;;5072765;28;20024;-50
2021/07/10 01:02:47;;;;;;;6.57;3.65;;;;;;;;;;5071709;28;20397;-50
2021/07/10 01:05:15;;;;;;;15.30;4.95;;;;;;;;;;5072450;28;20033;-50
2021/07/10 01:07:41;;;;;;;7.13;3.67;;;;;;;;;;5072529;28;20029;-50
2021/07/10 01:10:10;;;;;;;11.15;4.55;;;;;;;;;;5072743;28;20028;-50
2021/07/10 01:12:40;;;;;;;8.52;4.25;;;;;;;;;;5072346;28;20032;-50
2021/07/10 01:15:07;;;;;;;5.88;3.50;;;;;;;;;;5072364;28;20029;-50
2021/07/10 01:17:33;;;;;;;15.30;4.45;;;;;;;;;;5072491;28;20032;-50
2021/07/10 01:20:01;;;;;;;7.60;4.50;;;;;;;;;;5072202;28;20036;-50
2021/07/10 01:22:27;;;;;;;8.13;4.20;;;;;;;;;;5072285;28;20025;-51
2021/07/10 01:24:54;;;;;;;11.25;4.10;;;;;;;;;;5072482;28;20021;-50
2021/07/10 01:27:20;;;;;;;6.72;3.83;;;;;;;;;;5072766;28;20021;-50
2021/07/10 01:29:47;;;;;;;9.93;4.55;;;;;;;;;;5072464;28;20090;-50
2021/07/10 01:32:16;;;;;;;10.88;5.15;;;;;;;;;;5071315;28;20047;-50
2021/07/10 01:34:43;;;;;;;7.20;4.13;;;;;;;;;;5072580;28;20032;-50
2021/07/10 01:37:09;;;;;;;8.75;4.25;;;;;;;;;;5072355;28;20514;-50
2021/07/10 01:39:37;;;;;;;12.23;4.75;;;;;;;;;;5072625;28;20055;-50
2021/07/10 01:42:03;;;;;;;6.43;3.90;;;;;;;;;;5071891;28;20024;-50
2021/07/10 01:44:29;;;;;;;9.43;4.38;;;;;;;;;;5072268;28;20024;-50
2021/07/10 01:46:55;;;;;;;7.57;4.10;;;;;;;;;;5072232;28;20035;-50
2021/07/10 01:49:21;;;;;;;12.75;4.28;;;;;;;;;;5071899;28;20340;-50
2021/07/10 01:51:47;;;;;;;5.80;4.45;;;;;;;;;;5071681;28;20074;-50
2021/07/10 01:54:13;;;;;;;6.75;4.38;;;;;;;;;;5072308;28;20103;-50
2021/07/10 01:56:39;;;;;;;6.82;4.30;;;;;;;;;;5072323;28;20021;-50
2021/07/10 01:59:05;;;;;;;7.28;4.22;;;;;;;;;;5074913;28;20406;-50
2021/07/10 02:01:32;;;;;;;9.57;5.45;;;;;;;;;;5074982;28;20037;-50
2021/07/10 02:03:58;;;;;;;8.25;4.85;;;;;;;;;;5075675;28;20035;-50
2021/07/10 02:06:24;;;;;;;10.00;4.53;;;;;;;;;;5076089;28;20029;-50
2021/07/10 02:08:50;;;;;;;7.68;3.97;;;;;;;;;;5076169;28;20032;-50
2021/07/10 02:11:16;;;;;;;8.90;4.47;;;;;;;;;;5075031;28;20355;-51
2021/07/10 02:13:42;;;;;;;5.55;3.40;;;;;;;;;;5076137;28;20025;-51
2021/07/10 02:16:09;;;;;;;7.93;4.28;;;;;;;;;;5075654;28;20419;-50
2021/07/10 02:18:35;;;;;;;5.80;3.55;;;;;;;;;;5076057;28;20017;-50
2021/07/10 02:21:02;;;;;;;10.98;4.65;;;;;;;;;;5074443;28;20066;-51
2021/07/10 02:23:28;;;;;;;9.05;5.10;;;;;;;;;;5075835;28;20020;-50
2021/07/10 02:25:54;;;;;;;11.63;5.47;;;;;;;;;;5075416;28;20025;-50
2021/07/10 02:28:20;;;;;;;10.70;5.07;;;;;;;;;;5067206;28;20031;-50
2021/07/10 02:30:46;;;;;;;12.15;5.30;;;;;;;;;;5074556;28;20131;-50
2021/07/10 02:33:12;;;;;;;9.07;5.53;;;;;;;;;;5075342;28;20499;-50
2021/07/10 02:35:38;;;;;;;12.70;5.10;;;;;;;;;;5075091;28;20103;-50
2021/07/10 02:38:04;;;;;;;8.25;5.13;;;;;;;;;;5075242;28;20440;-51
2021/07/10 02:40:30;;;;;;;8.15;4.55;;;;;;;;;;5075222;28;20024;-50
2021/07/10 02:42:57;;;;;;;6.05;3.95;;;;;;;;;;5074714;28;20028;-51
2021/07/10 02:45:23;;;;;;;7.70;3.67;;;;;;;;;;5075426;28;20403;-51
2021/07/10 02:47:49;;;;;;;9.85;4.72;;;;;;;;;;5074574;28;20355;-50
2021/07/10 02:50:17;;;;;;;7.75;4.65;;;;;;;;;;5074861;28;20444;-50
2021/07/10 02:52:43;;;;;;;9.57;4.20;;;;;;;;;;5074583;28;20032;-50
2021/07/10 02:55:09;;;;;;;7.30;4.30;;;;;;;;;;5075475;28;20017;-50
2021/07/10 02:57:36;;;;;;;7.03;4.78;;;;;;;;;;5075038;28;20525;-51
2021/07/10 03:00:04;;;;;;;6.15;4.32;;;;;;;;;;5075292;28;20074;-50
2021/07/10 03:02:30;;;;;;;6.97;4.25;;;;;;;;;;5073815;28;20024;-50
2021/07/10 03:04:56;;;;;;;9.00;4.22;;;;;;;;;;5074784;28;20055;-50
2021/07/10 03:07:22;;;;;;;8.55;4.10;;;;;;;;;;5074673;28;20021;-50
2021/07/10 03:09:48;;;;;;;6.85;4.22;;;;;;;;;;5074583;28;20025;-50
2021/07/10 03:12:14;;;;;;;10.55;5.15;;;;;;;;;;5074065;28;20041;-50
2021/07/10 03:14:40;;;;;;;11.00;3.92;;;;;;;;;;5075067;28;20545;-50
2021/07/10 03:17:06;;;;;;;7.18;3.80;;;;;;;;;;5074190;28;20033;-50
2021/07/10 03:19:32;;;;;;;5.65;4.00;;;;;;;;;;5074489;28;20032;-50
2021/07/10 03:21:58;;;;;;;7.13;4.03;;;;;;;;;;5073842;28;20029;-50
2021/07/10 03:24:24;;;;;;;7.72;4.15;;;;;;;;;;5074471;28;20074;-50
2021/07/10 03:26:50;;;;;;;7.05;4.22;;;;;;;;;;5074663;28;20050;-51
2021/07/10 03:29:16;;;;;;;9.70;4.43;;;;;;;;;;5074159;28;20100;-50
2021/07/10 03:31:42;;;;;;;7.60;4.60;;;;;;;;;;5073353;28;20028;-51
2021/07/10 03:34:08;;;;;;;8.35;4.93;;;;;;;;;;5074425;28;20020;-50
2021/07/10 03:36:34;;;;;;;8.77;4.40;;;;;;;;;;5074427;28;20447;-50
2021/07/10 03:39:00;;;;;;;6.10;4.07;;;;;;;;;;5074473;28;20100;-51
2021/07/10 03:41:26;;;;;;;7.45;3.63;;;;;;;;;;5073532;28;20452;-50
2021/07/10 03:43:52;;;;;;;9.77;5.22;;;;;;;;;;5074338;28;20020;-50
2021/07/10 03:46:19;;;;;;;7.25;4.07;;;;;;;;;;5073876;28;20032;-50
2021/07/10 03:48:45;;;;;;;9.45;4.72;;;;;;;;;;5073845;28;20463;-50
2021/07/10 03:51:11;;;;;;;9.60;4.22;;;;;;;;;;5072923;28;20036;-51
2021/07/10 03:53:37;;;;;;;7.57;4.25;;;;;;;;;;5074110;28;20021;-51
2021/07/10 03:56:03;;;;;;;7.78;4.38;;;;;;;;;;5073812;28;20025;-50
2021/07/10 03:58:30;;;;;;;12.63;4.32;;;;;;;;;;5073718;28;20032;-50
2021/07/10 04:00:56;;;;;;;5.35;3.53;;;;;;;;;;5072741;28;20024;-51
2021/07/10 04:03:22;;;;;;;8.90;3.80;;;;;;;;;;5073397;28;20364;-51
2021/07/10 04:05:48;;;;;;;11.13;4.63;;;;;;;;;;5073834;28;20024;-50
2021/07/10 04:08:13;;;;;;;5.82;3.58;;;;;;;;;;5073609;28;20031;-50
2021/07/10 04:10:39;;;;;;;7.35;3.22;;;;;;;;;;5073048;28;20028;-51
2021/07/10 04:13:10;;;;;;;7.00;3.90;;;;;;;;;;5073544;28;20031;-50
2021/07/10 04:15:36;;;;;;;;;;;;;;;;;;5073812;28;20104;-50
2021/07/10 04:18:02;;;;;;;7.28;3.50;;;;;;;;;;5073634;28;20315;-51
2021/07/10 04:20:28;;;;;;;10.38;4.72;;;;;;;;;;5072324;28;20079;-51
2021/07/10 04:22:54;;;;;;;8.57;4.50;;;;;;;;;;5073074;28;20451;-51
2021/07/10 04:25:20;;;;;;;12.68;4.70;;;;;;;;;;5071832;28;20040;-51
2021/07/10 04:27:46;;;;;;;10.48;4.65;;;;;;;;;;5073341;28;20024;-50
2021/07/10 04:30:13;;;;;;;8.10;4.85;;;;;;;;;;5073244;28;20020;-50
2021/07/10 04:32:39;;;;;;;11.82;5.40;;;;;;;;;;5072699;28;20455;-50
2021/07/10 04:35:06;;;;;;;16.55;6.28;;;;;;;;;;5069247;28;20090;-50
2021/07/10 04:37:32;;;;;;;12.00;5.32;;;;;;;;;;5062835;28;20017;-50
2021/07/10 04:39:58;;;;;;;14.48;6.55;;;;;;;;;;5061328;28;20440;-50
2021/07/10 04:42:25;;;;;;;13.55;6.80;;;;;;;;;;5063756;28;20444;-50
2021/07/10 04:44:52;;;;;;;9.75;5.18;;;;;;;;;;5072928;28;20036;-50
2021/07/10 04:47:17;;;;;;;18.00;5.55;;;;;;;;;;5072931;28;20096;-50
2021/07/10 04:49:44;;;;;;;12.43;6.20;;;;;;;;;;5073161;28;20108;-50
2021/07/10 04:52:10;;;;;;;14.98;5.45;;;;;;;;;;5072635;28;20111;-50
2021/07/10 04:54:36;;;;;;;9.65;5.22;;;;;;;;;;5072540;28;20432;-51
2021/07/10 04:57:02;;;;;;;11.25;5.35;;;;;;;;;;5072593;28;20466;-50
2021/07/10 04:59:28;;;;;;;11.95;4.95;;;;;;;;;;5072955;28;20024;-50
2021/07/10 05:01:54;;;;;;;10.18;5.72;;;;;;;;;;5072529;28;20082;-49
2021/07/10 05:04:20;;;;;;;11.45;5.43;;;;;;;;;;5072638;28;20024;-50
2021/07/10 05:06:46;;;;;;;8.90;5.20;;;;;;;;;;5072718;28;20371;-50
2021/07/10 05:09:12;;;;;;;7.55;5.28;;;;;;;;;;5072289;28;20028;-51
2021/07/10 05:11:38;;;;;;;9.00;5.55;;;;;;;;;;5072212;28;20087;-50
2021/07/10 05:14:04;;;;;;;10.48;5.85;;;;;;;;;;5072970;28;20332;-50
2021/07/10 05:16:31;;;;;;;10.30;5.70;;;;;;;;;;5072648;28;20029;-50
2021/07/10 05:18:57;;;;;;;7.88;5.10;;;;;;;;;;5072728;28;20021;-51
2021/07/10 05:21:23;;;;;;;8.88;5.22;;;;;;;;;;5071470;28;20033;-50
2021/07/10 05:23:49;;;;;;;6.95;4.88;;;;;;;;;;5072658;28;20024;-50
2021/07/10 05:26:15;;;;;;;8.95;4.85;;;;;;;;;;5072974;28;20029;-50
2021/07/10 05:28:42;;;;;;;10.52;5.22;;;;;;;;;;5072865;28;20035;-50
2021/07/10 05:31:08;;;;;;;8.63;4.90;;;;;;;;;;5071379;28;20037;-50
2021/07/10 05:33:33;;;;;;;8.55;4.28;;;;;;;;;;5075567;28;20108;-50
2021/07/10 05:35:59;;;;;;;7.20;4.63;;;;;;;;;;5076695;28;20031;-50
2021/07/10 05:38:26;;;;;;;7.28;4.43;;;;;;;;;;5064414;28;20086;-50
2021/07/10 05:40:52;;;;;;;9.95;4.25;;;;;;;;;;5055742;28;20529;-50
2021/07/10 05:43:23;;;;;;;9.05;4.00;;;;;;;;;;5059299;28;20029;-50
2021/07/10 05:45:49;;;;;;;7.53;5.28;;;;;;;;;;5056604;28;20027;-50
2021/07/10 05:48:15;;;;;;;8.20;4.30;;;;;;;;;;5065552;28;20067;-50
2021/07/10 05:50:41;;;;;;;5.88;3.95;;;;;;;;;;5075375;28;20060;-50
2021/07/10 05:53:07;;;;;;;8.77;4.65;;;;;;;;;;5076136;28;20440;-50
2021/07/10 05:55:34;;;;;;;7.75;4.55;;;;;;;;;;5076110;28;20341;-50
2021/07/10 05:58:00;;;;;;;6.18;4.13;;;;;;;;;;5075966;28;20032;-50
2021/07/10 06:00:26;;;;;;;8.90;4.55;;;;;;;;;;5076341;28;20027;-50
2021/07/10 06:02:52;;;;;;;9.48;4.07;;;;;;;;;;5075338;28;20097;-50
2021/07/10 06:05:18;;;;;;;7.85;4.72;;;;;;;;;;5075691;28;20016;-50
2021/07/10 06:07:44;;;;;;;7.82;4.25;;;;;;;;;;5076113;28;20036;-50
2021/07/10 06:10:11;;;;;;;8.50;4.93;;;;;;;;;;5075694;28;20021;-50
2021/07/10 06:12:37;;;;;;;7.00;4.50;;;;;;;;;;5075332;28;20127;-51
2021/07/10 06:15:04;;;;;;;6.80;4.32;;;;;;;;;;5068438;28;20436;-50
2021/07/10 06:17:30;;;;;;;8.73;4.97;;;;;;;;;;5074241;28;20436;-50
2021/07/10 06:19:56;;;;;;;12.52;5.85;;;;;;;;;;5074934;28;20051;-50
2021/07/10 06:22:22;;;;;;;14.90;6.22;;;;;;;;;;5074510;28;20028;-50
2021/07/10 06:24:48;;;;;;;9.93;5.20;;;;;;;;;;5075262;28;20028;-51
2021/07/10 06:27:14;;;;;;;8.57;5.47;;;;;;;;;;5075237;28;20025;-50
2021/07/10 06:29:41;;;;;;;9.30;5.40;;;;;;;;;;5074833;28;20432;-51
2021/07/10 06:32:07;;;;;;;10.07;5.25;;;;;;;;;;5073620;28;20032;-51
2021/07/10 06:34:34;;;;;;;14.02;5.10;;;;;;;;;;5071917;28;20464;-51
2021/07/10 06:37:00;;;;;;;9.55;5.78;;;;;;;;;;5057649;28;20045;-51
2021/07/10 06:39:26;;;;;;;7.28;5.22;;;;;;;;;;5055073;28;20099;-51
2021/07/10 06:41:52;;;;;;;10.82;5.25;;;;;;;;;;5054694;28;20446;-50
2021/07/10 06:44:18;;;;;;;14.55;6.78;;;;;;;;;;5054753;28;20025;-50
2021/07/10 06:46:44;;;;;;;11.48;6.70;;;;;;;;;;5055202;28;20163;-50
2021/07/10 06:49:10;;;;;;;9.30;5.70;;;;;;;;;;5054878;28;20360;-50
2021/07/10 06:51:36;;;;;;;11.00;5.55;;;;;;;;;;5073737;28;20422;-50
2021/07/10 06:54:02;;;;;;;10.60;5.85;;;;;;;;;;5074853;28;20436;-51
2021/07/10 06:56:28;;;;;;;8.18;5.65;;;;;;;;;;5074912;28;20028;-51
2021/07/10 06:58:54;;;;;;;12.50;6.35;;;;;;;;;;5074822;28;20115;-51
2021/07/10 07:01:20;;;;;;;9.68;5.47;;;;;;;;;;5074407;28;20032;-50
2021/07/10 07:03:46;;;;;;;13.23;6.03;;;;;;;;;;5074684;28;20515;-51
2021/07/10 07:06:12;;;;;;;8.95;5.57;;;;;;;;;;5074998;28;20032;-51
2021/07/10 07:08:38;;;;;;;12.93;5.90;;;;;;;;;;5074601;28;20024;-51
2021/07/10 07:11:04;;;;;;;11.43;6.28;;;;;;;;;;5073420;28;20056;-51
2021/07/10 07:13:30;;;;;;;9.80;6.28;;;;;;;;;;5074835;28;20033;-51
2021/07/10 07:15:56;;;;;;;12.23;6.88;;;;;;;;;;5074503;28;20031;-51
2021/07/10 07:18:22;;;;;;;9.82;6.30;;;;;;;;;;5074657;28;20029;-50
2021/07/10 07:20:48;;;;;;;10.80;7.00;;;;;;;;;;5073500;28;20101;-50
2021/07/10 07:23:14;;;;;;;8.93;6.25;;;;;;;;;;5074798;28;20432;-50
2021/07/10 07:25:40;;;;;;;9.60;6.25;;;;;;;;;;5074503;28;20017;-51
2021/07/10 07:28:07;;;;;;;13.50;7.20;;;;;;;;;;5074471;28;20083;-50
2021/07/10 07:30:34;;;;;;;13.85;6.88;;;;;;;;;;5073924;28;20081;-51
2021/07/10 07:33:00;;;;;;;11.35;6.95;;;;;;;;;;5074406;28;20529;-50
2021/07/10 07:35:26;;;;;;;11.85;6.82;;;;;;;;;;5074174;28;20103;-50
2021/07/10 07:37:52;;;;;;;9.63;6.50;;;;;;;;;;5074295;28;20035;-51
2021/07/10 07:40:18;;;;;;;10.80;6.72;;;;;;;;;;5074272;28;20078;-50
2021/07/10 07:42:45;;;;;;;11.48;7.47;;;;;;;;;;5072916;28;20028;-51
2021/07/10 07:45:11;;;;;;;9.05;6.60;;;;;;;;;;5074030;28;20063;-50
2021/07/10 07:47:38;;;;;;;16.17;7.15;;;;;;;;;;5074009;28;20447;-51
2021/07/10 07:50:05;;;;;;;11.13;6.53;;;;;;;;;;5073882;28;20290;-51
2021/07/10 07:52:31;;;;;;;10.25;7.28;;;;;;;;;;5073029;28;20490;-50
2021/07/10 07:54:57;;;;;;;10.15;6.25;;;;;;;;;;5074111;28;20025;-51
2021/07/10 07:57:23;;;;;;;9.35;5.63;;;;;;;;;;5073906;28;20024;-51
2021/07/10 07:59:49;;;;;;;15.68;7.53;;;;;;;;;;5073591;28;20017;-51
2021/07/10 08:02:15;;;;;;;13.30;7.45;;;;;;;;;;5072835;28;20103;-50
2021/07/10 08:04:41;;;;;;;16.45;8.30;;;;;;;;;;5073958;28;20519;-50
2021/07/10 08:07:07;;;;;;;13.07;7.53;;;;;;;;;;5073826;28;20025;-50
2021/07/10 08:09:33;;;;;;;12.35;7.57;;;;;;;;;;5073619;28;20459;-50
2021/07/10 08:11:59;;;;;;;10.40;6.45;;;;;;;;;;5072337;28;20044;-50
2021/07/10 08:14:25;;;;;;;11.98;6.22;;;;;;;;;;5073347;28;20044;-51
2021/07/10 08:16:52;;;;;;;12.75;7.30;;;;;;;;;;5073470;28;20029;-51
2021/07/10 08:19:18;;;;;;;13.90;7.63;;;;;;;;;;5073257;28;20020;-50
2021/07/10 08:21:45;;;;;;;17.77;8.20;;;;;;;;;;5072587;28;20024;-51
2021/07/10 08:24:11;;;;;;;13.73;7.15;;;;;;;;;;5073223;28;20043;-51
2021/07/10 08:26:37;;;;;;;9.93;5.85;;;;;;;;;;5073418;28;20103;-51
2021/07/10 08:29:05;;;;;;;12.77;7.60;;;;;;;;;;5072708;28;20028;-51
2021/07/10 08:31:32;;;;;;;13.18;7.30;;;;;;;;;;5072627;28;20044;-51
2021/07/10 08:33:58;;;;;;;10.13;5.85;;;;;;;;;;5073617;28;20086;-50
2021/07/10 08:36:24;;;;;;;12.05;5.95;;;;;;;;;;5072433;28;20123;-51
2021/07/10 08:38:52;;;;;;;8.35;6.03;;;;;;;;;;5068240;28;20112;-51
2021/07/10 08:41:18;;;;;;;14.98;6.78;;;;;;;;;;5052550;28;20062;-50
2021/07/10 08:43:44;;;;;;;9.52;5.55;;;;;;;;;;5055390;28;20034;-50
2021/07/10 08:46:12;;;;;;;11.25;6.88;;;;;;;;;;5062294;28;20111;-50
2021/07/10 08:48:38;;;;;;;11.05;6.03;;;;;;;;;;5061899;28;20090;-50
2021/07/10 08:51:05;;;;;;;10.98;5.05;;;;;;;;;;5062754;28;20028;-50
2021/07/10 08:53:31;;;;;;;9.57;5.28;;;;;;;;;;5060260;28;20021;-50
2021/07/10 08:55:57;;;;;;;14.35;7.32;;;;;;;;;;5064410;28;20068;-51
2021/07/10 08:58:23;;;;;;;12.80;6.10;;;;;;;;;;5064662;28;20051;-51
2021/07/10 09:00:50;;;;;;;7.43;4.68;;;;;;;;;;5061513;28;20033;-50
2021/07/10 09:03:17;;;;;;;9.88;5.93;;;;;;;;;;5060236;28;20021;-50
2021/07/10 09:05:43;;;;;;;8.60;5.70;;;;;;;;;;5063640;28;20032;-50
2021/07/10 09:08:19;;;;;;;6.78;4.53;;;;;;;;;;5052144;28;20448;-50
2021/07/10 09:11:05;;;;;;;8.88;4.93;;;;;;;;;;5051851;28;20112;-51
2021/07/10 09:13:31;;;;;;;11.60;7.30;;;;;;;;;;5052301;28;20059;-50
2021/07/10 09:16:21;;;;;;;12.88;5.78;;;;;;;;;;5057976;28;20060;-51
2021/07/10 09:18:48;;;;;;;10.63;6.05;;;;;;;;;;5047731;28;20435;-51
2021/07/10 09:21:16;;;;;;;7.85;5.18;;;;;;;;;;5051504;28;20082;-51
2021/07/10 09:23:44;;;;;;;11.40;7.20;;;;;;;;;;5052520;28;20021;-50
2021/07/10 09:26:13;;;;;;;9.70;5.63;;;;;;;;;;5052996;28;20033;-50
2021/07/10 09:28:39;;;;;;;11.18;6.55;;;;;;;;;;5052433;28;20025;-50
2021/07/10 09:31:13;;;;;;;8.35;5.38;;;;;;;;;;5051738;28;20491;-51
2021/07/10 09:33:39;;;;;;;10.60;6.85;;;;;;;;;;5052300;28;20082;-50
2021/07/10 09:36:06;;;;;;;9.65;6.72;;;;;;;;;;5052202;28;20025;-50
2021/07/10 09:38:34;;;;;;;9.93;6.00;;;;;;;;;;5052409;28;20471;-50
2021/07/10 09:41:06;;;;;;;10.15;5.72;;;;;;;;;;5060535;28;20037;-51
2021/07/10 09:43:34;;;;;;;13.02;5.75;;;;;;;;;;5072440;28;20074;-50
2021/07/10 09:46:02;;;;;;;10.35;6.20;;;;;;;;;;5071843;28;20068;-51
2021/07/10 09:48:29;;;;;;;10.68;5.30;;;;;;;;;;5072566;28;20024;-51
2021/07/10 09:51:15;;;;;;;6.80;4.70;;;;;;;;;;5071321;28;20367;-50
2021/07/10 09:53:41;;;;;;;7.47;4.60;;;;;;;;;;5072238;28;20033;-50
2021/07/10 09:56:11;;;;;;;7.10;3.80;;;;;;;;;;5072116;28;20031;-51
2021/07/10 09:58:38;;;;;;;7.57;4.47;;;;;;;;;;5068006;28;20032;-51
2021/07/10 10:01:23;;;;;;;6.22;4.22;;;;;;;;;;5070021;28;20036;-51
2021/07/10 10:03:49;;;;;;;7.72;4.40;;;;;;;;;;5051628;28;20108;-51
2021/07/10 10:06:28;;;;;;;9.27;5.75;;;;;;;;;;5065644;28;20138;-50
2021/07/10 10:08:54;;;;;;;6.25;4.28;;;;;;;;;;5072072;28;20028;-51
2021/07/10 10:11:20;;;;;;;5.97;4.20;;;;;;;;;;5070981;28;20344;-51
2021/07/10 10:13:45;;;;;;;5.75;3.72;;;;;;;;;;5071802;28;20086;-51
2021/07/10 10:16:16;;;;;;;9.02;4.72;;;;;;;;;;5072300;28;20063;-52
2021/07/10 10:18:42;;;;;;;9.57;4.05;;;;;;;;;;5072175;28;20028;-51
2021/07/10 10:21:09;;;;;;;7.38;4.53;;;;;;;;;;5074120;28;20039;-51
2021/07/10 10:23:35;;;;;;;7.60;4.20;;;;;;;;;;5074967;28;20059;-51
2021/07/10 10:26:02;;;;;;;6.25;3.97;;;;;;;;;;5073931;28;20028;-52
2021/07/10 10:28:28;;;;;;;8.18;4.43;;;;;;;;;;5075523;28;20032;-51
2021/07/10 10:30:55;;;;;;;7.07;4.70;;;;;;;;;;5074537;28;20029;-51
2021/07/10 10:33:22;;;;;;;4.70;3.17;;;;;;;;;;5075129;28;20035;-51
2021/07/10 10:35:49;;;;;;;5.53;3.58;;;;;;;;;;5075008;28;20048;-51
2021/07/10 10:38:16;;;;;;;4.57;2.97;;;;;;;;;;5074191;28;20466;-51
2021/07/10 10:40:43;;;;;;;9.35;3.65;;;;;;;;;;5074725;28;20029;-51
2021/07/10 10:43:09;;;;;;;6.45;3.22;;;;;;;;;;5075263;28;20020;-52
2021/07/10 10:45:36;;;;;;;3.80;3.13;;;;;;;;;;5074739;28;20111;-52
2021/07/10 10:48:03;;;;;;;4.32;3.38;;;;;;;;;;5075000;28;20017;-51
2021/07/10 10:50:29;;;;;;;5.25;3.80;;;;;;;;;;5074165;28;20025;-51
2021/07/10 10:52:57;;;;;;;5.13;3.08;;;;;;;;;;5074494;28;20028;-51
2021/07/10 10:55:26;;;;;;;5.03;3.88;;;;;;;;;;5074984;28;20396;-51
2021/07/10 10:57:54;;;;;;;4.55;2.83;;;;;;;;;;5074627;28;20085;-51
2021/07/10 11:00:32;;;;;;;4.13;2.97;;;;;;;;;;5074971;28;20155;-51
2021/07/10 11:03:00;;;;;;;7.43;3.75;;;;;;;;;;5075003;28;20104;-51
2021/07/10 11:05:32;;;;;;;6.55;3.55;;;;;;;;;;5074208;28;20032;-51
2021/07/10 11:08:16;;;;;;;4.43;3.38;;;;;;;;;;5065333;28;20410;-51
2021/07/10 11:10:42;;;;;;;4.53;3.17;;;;;;;;;;5063904;28;20060;-51
2021/07/10 11:13:25;;;;;;;4.05;2.78;;;;;;;;;;5063376;28;20057;-51
2021/07/10 11:16:03;;;;;;;5.10;2.88;;;;;;;;;;5062781;28;20060;-51
2021/07/10 11:18:29;;;;;;;6.20;2.58;;;;;;;;;;5062755;28;20025;-51
2021/07/10 11:20:56;;;;;;;4.97;3.17;;;;;;;;;;5063422;28;20113;-51
2021/07/10 11:23:26;;;;;;;3.60;2.20;;;;;;;;;;5064504;28;20021;-51
2021/07/10 11:25:52;;;;;;;3.95;3.08;;;;;;;;;;5063010;28;20082;-51
2021/07/10 11:28:22;;;;;;;2.90;2.45;;;;;;;;;;5064033;28;20021;-51
2021/07/10 11:30:50;;;;;;;3.30;2.67;;;;;;;;;;5063588;28;20510;-51
2021/07/10 11:33:16;;;;;;;3.08;2.58;;;;;;;;;;5062940;28;20063;-51
2021/07/10 11:35:46;;;;;;;3.53;2.67;;;;;;;;;;5064882;28;20440;-51
2021/07/10 11:38:31;;;;;;;3.20;2.25;;;;;;;;;;5062818;28;20459;-51
2021/07/10 11:41:01;;;;;;;2.97;2.28;;;;;;;;;;5062023;28;20032;-52
2021/07/10 11:43:53;;;;;;;2.85;2.35;;;;;;;;;;5063889;28;20032;-51
2021/07/10 11:46:19;;;;;;;3.28;2.60;;;;;;;;;;5066261;28;20504;-51
2021/07/10 11:48:48;;;;;;;3.63;2.47;;;;;;;;;;5065716;28;20093;-51
2021/07/10 11:51:19;;;;;;;3.23;2.50;;;;;;;;;;5062866;28;20039;-51
2021/07/10 11:53:45;;;;;;;6.43;2.75;;;;;;;;;;5063084;28;20702;-51
2021/07/10 11:56:11;;;;;;;4.30;2.72;;;;;;;;;;5062576;28;20036;-51
2021/07/10 11:58:37;;;;;;;6.00;3.10;;;;;;;;;;5062595;28;20028;-51
2021/07/10 12:01:04;;;;;;;5.57;3.25;;;;;;;;;;5062533;28;20456;-51
2021/07/10 12:03:32;;;;;;;8.95;4.03;;;;;;;;;;5062645;28;20025;-51
2021/07/10 12:05:58;;;;;;;4.10;2.55;;;;;;;;;;5063416;28;20155;-51
2021/07/10 12:08:24;;;;;;;6.57;3.10;;;;;;;;;;5063806;28;20025;-52
2021/07/10 12:10:51;;;;;;;3.13;2.50;;;;;;;;;;5061240;28;20069;-54
2021/07/10 12:13:22;;;;;;;4.75;2.55;;;;;;;;;;5064108;28;20032;-52
2021/07/10 12:15:54;;;;;;;8.40;3.13;;;;;;;;;;5064012;28;20113;-51
2021/07/10 12:18:22;;;;;;;16.70;3.45;;;;;;;;;;5062207;28;20029;-50
2021/07/10 12:20:48;;;;;;;13.10;4.15;;;;;;;;;;5061385;28;20036;-50
2021/07/10 12:23:14;;;;;;;5.75;3.47;;;;;;;;;;5064224;28;20024;-50
2021/07/10 12:25:48;;;;;;;2.97;2.65;;;;;;;;;;5062812;28;20021;-50
2021/07/10 12:28:15;;;;;;;7.90;3.20;;;;;;;;;;5062050;28;20440;-50
2021/07/10 12:30:48;;;;;;;4.93;3.33;;;;;;;;;;5061936;28;20020;-50
2021/07/10 12:33:33;;;;;;;7.53;3.35;;;;;;;;;;5063929;28;20028;-50
2021/07/10 12:36:00;;;;;;;4.38;3.30;;;;;;;;;;5061926;28;20033;-51
2021/07/10 12:38:26;;;;;;;3.35;2.53;;;;;;;;;;5062284;28;20017;-50
2021/07/10 12:40:52;;;;;;;3.80;2.90;;;;;;;;;;5063139;28;20035;-50
2021/07/10 12:43:25;;;;;;;6.32;3.53;;;;;;;;;;5055861;28;20341;-50
2021/07/10 12:45:58;;;;;;;4.97;3.25;;;;;;;;;;5052337;28;20017;-49
2021/07/10 12:48:24;;;;;;;5.65;2.88;;;;;;;;;;5070341;28;20020;-49
2021/07/10 12:50:50;;;;;;;5.45;3.55;;;;;;;;;;5063502;28;20078;-50
2021/07/10 12:53:17;;;;;;;3.17;2.63;;;;;;;;;;5052911;28;20021;-50
2021/07/10 12:56:00;;;;;;;3.05;2.55;;;;;;;;;;5052354;28;20033;-50
2021/07/10 12:58:26;;;;;;;4.93;3.20;;;;;;;;;;5053155;28;20032;-50
2021/07/10 13:00:52;;;;;;;4.20;3.17;;;;;;;;;;5051943;28;20035;-50
2021/07/10 13:03:22;;;;;;;3.72;2.35;;;;;;;;;;5054229;28;20013;-50
2021/07/10 13:05:48;;;;;;;4.53;3.30;;;;;;;;;;5060783;28;20082;-50
2021/07/10 13:08:24;;;;;;;5.20;2.80;;;;;;;;;;5062670;28;20031;-50
2021/07/10 13:10:59;;;;;;;4.25;2.50;;;;;;;;;;5062241;28;20025;-50
2021/07/10 13:13:27;;;;;;;7.10;2.97;;;;;;;;;;5062785;28;20128;-50
2021/07/10 13:15:55;;;;;;;4.60;3.20;;;;;;;;;;5061625;28;20398;-51
2021/07/10 13:18:25;;;;;;;5.40;3.72;;;;;;;;;;5063026;28;20115;-50
2021/07/10 13:20:55;;;;;;;3.97;2.88;;;;;;;;;;5061759;28;20045;-50
2021/07/10 13:23:30;;;;;;;5.10;2.92;;;;;;;;;;5061739;28;20417;-50
2021/07/10 13:25:56;;;;;;;3.08;2.70;;;;;;;;;;5060928;28;20479;-50
2021/07/10 13:28:22;;;;;;;6.28;3.58;;;;;;;;;;5063083;28;20025;-50
2021/07/10 13:30:48;;;;;;;9.70;3.85;;;;;;;;;;5061453;28;20031;-50
2021/07/10 13:33:14;;;;;;;4.47;2.92;;;;;;;;;;5061165;28;20048;-50
2021/07/10 13:35:40;;;;;;;4.22;3.10;;;;;;;;;;5063083;28;20074;-50
2021/07/10 13:38:15;;;;;;;6.22;2.88;;;;;;;;;;5061477;28;20059;-50
2021/07/10 13:40:41;;;;;;;4.25;2.72;;;;;;;;;;5060149;28;20518;-50
2021/07/10 13:43:07;;;;;;;3.58;2.78;;;;;;;;;;5062543;28;20033;-50
2021/07/10 13:45:33;;;;;;;3.70;2.55;;;;;;;;;;5062601;28;20048;-50
2021/07/10 13:48:13;;;;;;;7.10;2.22;;;;;;;;;;5060508;28;20071;-50
2021/07/10 13:50:39;;;;;;;5.17;3.47;;;;;;;;;;5059849;28;20108;-50
2021/07/10 13:53:18;;;;;;;3.78;2.90;;;;;;;;;;5063691;28;20350;-50
2021/07/10 13:55:45;;;;;;;5.43;3.13;;;;;;;;;;5065340;28;20083;-51
2021/07/10 13:58:28;;;;;;;3.63;2.90;;;;;;;;;;5065444;28;20398;-50
2021/07/10 14:00:54;;;;;;;5.30;2.83;;;;;;;;;;5065515;28;20048;-51
2021/07/10 14:03:20;;;;;;;3.90;2.97;;;;;;;;;;5064442;28;20021;-50
2021/07/10 14:05:47;;;;;;;4.90;2.47;;;;;;;;;;5066151;28;20029;-50
2021/07/10 14:08:14;;;;;;;4.63;2.97;;;;;;;;;;5065981;28;20619;-50
2021/07/10 14:10:41;;;;;;;4.85;2.88;;;;;;;;;;5063387;28;20021;-50
2021/07/10 14:13:11;;;;;;;6.15;3.72;;;;;;;;;;5066078;28;20066;-51
2021/07/10 14:15:38;;;;;;;7.80;2.97;;;;;;;;;;5064982;28;20397;-50
2021/07/10 14:18:04;;;;;;;4.68;2.90;;;;;;;;;;5066634;28;20266;-50
2021/07/10 14:20:30;;;;;;;13.75;3.22;;;;;;;;;;5064808;28;20025;-50
2021/07/10 14:22:57;;;;;;;3.53;2.63;;;;;;;;;;5064464;28;20104;-50
2021/07/10 14:25:24;;;;;;;4.07;3.13;;;;;;;;;;5066427;28;20496;-50
2021/07/10 14:27:51;;;;;;;4.43;3.28;;;;;;;;;;5065095;28;20025;-50
2021/07/10 14:30:18;;;;;;;4.32;2.80;;;;;;;;;;5063097;28;20031;-50
2021/07/10 14:32:44;;;;;;;6.38;2.55;;;;;;;;;;5065662;28;20035;-50
2021/07/10 14:35:11;;;;;;;4.50;2.58;;;;;;;;;;5064842;28;20021;-51
2021/07/10 14:37:37;;;;;;;4.10;2.80;;;;;;;;;;5064451;28;20027;-51
2021/07/10 14:40:04;;;;;;;4.28;2.78;;;;;;;;;;5065590;28;20130;-50
2021/07/10 14:42:30;;;;;;;2.63;2.17;;;;;;;;;;5063800;28;20333;-51